createdAt,value
2024-01-06T00:00:05.931Z,23.77
2024-01-06T00:02:32.417Z,27.63
2024-01-06T00:04:58.869Z,29.90
2024-01-06T00:07:25.302Z,26.67
2024-01-06T00:09:51.942Z,28.77
2024-01-06T00:12:19.696Z,28.08
2024-01-06T00:14:46.340Z,25.95
2024-01-06T00:17:12.955Z,24.92
2024-01-06T00:19:39.477Z,26.63
2024-01-06T00:22:05.953Z,28.48
2024-01-06T00:24:32.566Z,27.45
2024-01-06T00:26:58.972Z,30.50
2024-01-06T00:29:25.416Z,30.70
2024-01-06T00:31:51.820Z,29.73
2024-01-06T00:34:18.418Z,29.77
2024-01-06T00:36:45.044Z,28.35
2024-01-06T00:39:11.625Z,28.52
2024-01-06T00:41:38.030Z,29.52
2024-01-06T00:44:04.604Z,30.58
2024-01-06T00:46:31.013Z,30.05
2024-01-06T00:48:57.580Z,27.67
2024-01-06T00:51:24.178Z,31.65
2024-01-06T00:53:50.669Z,31.58
2024-01-06T00:56:17.087Z,30.40
2024-01-06T00:58:43.553Z,31.52
2024-01-06T01:01:10.077Z,34.28
2024-01-06T01:03:36.668Z,31.80
2024-01-06T01:06:03.394Z,33.72
2024-01-06T01:08:29.856Z,32.70
2024-01-06T01:10:56.243Z,33.72
2024-01-06T01:13:22.854Z,35.58
2024-01-06T01:15:49.735Z,34.25
2024-01-06T01:18:16.450Z,32.72
2024-01-06T01:20:42.994Z,37.45
2024-01-06T01:23:09.542Z,34.85
2024-01-06T01:25:36.010Z,31.63
2024-01-06T01:28:03.353Z,31.98
2024-01-06T01:30:29.953Z,35.10
2024-01-06T01:32:56.581Z,32.80
2024-01-06T01:35:23.059Z,30.08
2024-01-06T01:37:49.752Z,35.20
2024-01-06T01:40:16.263Z,31.15
2024-01-06T01:42:44.394Z,38.72
2024-01-06T01:45:12.932Z,39.15
2024-01-06T01:47:40.653Z,35.35
2024-01-06T01:50:08.837Z,37.13
2024-01-06T01:52:36.974Z,36.00
2024-01-06T01:55:03.900Z,33.10
2024-01-06T01:57:30.528Z,35.85
2024-01-06T01:59:58.021Z,38.85
2024-01-06T02:02:24.706Z,37.05
2024-01-06T02:04:51.232Z,39.22
2024-01-06T02:07:17.945Z,32.85
2024-01-06T02:09:44.516Z,33.83
2024-01-06T02:12:11.074Z,33.88
2024-01-06T02:14:37.596Z,39.50
2024-01-06T02:17:04.352Z,36.15
2024-01-06T02:19:30.873Z,38.30
2024-01-06T02:21:57.384Z,35.60
2024-01-06T02:24:23.893Z,32.65
2024-01-06T02:26:50.437Z,36.50
2024-01-06T02:29:16.931Z,41.33
2024-01-06T02:31:43.559Z,34.00
2024-01-06T02:34:10.168Z,39.08
2024-01-06T02:36:36.704Z,37.03
2024-01-06T02:39:03.283Z,40.47
2024-01-06T02:41:29.750Z,35.38
2024-01-06T02:43:57.425Z,41.83
2024-01-06T02:46:23.864Z,41.65
2024-01-06T02:48:50.394Z,32.95
2024-01-06T02:51:17.015Z,39.85
2024-01-06T02:53:43.544Z,34.58
2024-01-06T02:56:13.531Z,39.20
2024-01-06T02:58:40.391Z,38.15
2024-01-06T03:01:07.038Z,35.80
2024-01-06T03:03:33.756Z,43.83
2024-01-06T03:06:01.042Z,42.35
2024-01-06T03:08:27.893Z,40.83
2024-01-06T03:10:54.329Z,42.17
2024-01-06T03:13:20.827Z,37.05
2024-01-06T03:15:47.430Z,41.70
2024-01-06T03:18:14.035Z,40.85
2024-01-06T03:20:40.609Z,44.58
2024-01-06T03:23:07.040Z,49.17
2024-01-06T03:25:33.483Z,43.22
2024-01-06T03:27:59.899Z,44.85
2024-01-06T03:30:26.473Z,47.03
2024-01-06T03:32:53.099Z,44.72
2024-01-06T03:35:19.581Z,41.22
2024-01-06T03:37:46.076Z,47.45
2024-01-06T03:40:13.025Z,38.47
2024-01-06T03:42:39.429Z,42.15
2024-01-06T03:45:06.308Z,45.60
2024-01-06T03:47:32.798Z,42.30
2024-01-06T03:49:59.228Z,46.28
2024-01-06T03:52:25.811Z,46.55
2024-01-06T03:54:52.339Z,49.65
2024-01-06T03:57:18.801Z,47.75
2024-01-06T03:59:45.234Z,42.50
2024-01-06T04:02:11.673Z,44.03
2024-01-06T04:04:38.118Z,38.70
2024-01-06T04:07:04.672Z,48.25
2024-01-06T04:09:31.169Z,41.70
2024-01-06T04:11:57.659Z,42.97
2024-01-06T04:14:24.144Z,40.47
2024-01-06T04:16:50.605Z,38.45
2024-01-06T04:19:17.172Z,39.15
2024-01-06T04:21:43.648Z,38.67
2024-01-06T04:24:10.125Z,39.80
2024-01-06T04:26:36.547Z,40.08
2024-01-06T04:29:03.118Z,32.10
2024-01-06T04:31:29.600Z,40.33
2024-01-06T04:33:56.261Z,44.05
2024-01-06T04:36:22.787Z,33.30
2024-01-06T04:38:49.312Z,41.63
2024-01-06T04:41:15.721Z,45.38
2024-01-06T04:43:42.192Z,48.63
2024-01-06T04:46:08.628Z,41.88
2024-01-06T04:48:35.293Z,41.28
2024-01-06T04:51:04.350Z,46.72
2024-01-06T04:53:30.742Z,43.60
2024-01-06T04:55:57.143Z,46.95
2024-01-06T04:58:23.609Z,44.20
2024-01-06T05:00:52.178Z,49.28
2024-01-06T05:03:19.283Z,44.65
2024-01-06T05:05:46.092Z,43.95
2024-01-06T05:08:12.466Z,51.88
2024-01-06T05:10:38.983Z,47.85
2024-01-06T05:13:05.476Z,47.90
2024-01-06T05:15:31.960Z,37.75
2024-01-06T05:17:58.435Z,47.05
2024-01-06T05:20:24.894Z,41.67
2024-01-06T05:22:51.294Z,44.70
2024-01-06T05:25:17.845Z,49.25
2024-01-06T05:27:44.304Z,44.67
2024-01-06T05:30:11.221Z,43.85
2024-01-06T05:32:38.946Z,41.47
2024-01-06T05:35:05.863Z,48.13
2024-01-06T05:37:33.116Z,46.55
2024-01-06T05:40:02.516Z,49.90
2024-01-06T05:42:29.091Z,47.65
2024-01-06T05:44:56.048Z,51.08
2024-01-06T05:47:22.881Z,48.28
2024-01-06T05:49:49.809Z,53.67
2024-01-06T05:52:16.781Z,51.78
2024-01-06T05:54:43.666Z,46.65
2024-01-06T05:57:10.268Z,46.08
2024-01-06T05:59:36.892Z,50.30
2024-01-06T06:02:03.492Z,43.00
2024-01-06T06:04:30.278Z,55.35
2024-01-06T06:06:59.175Z,46.05
2024-01-06T06:09:26.633Z,53.75
2024-01-06T06:11:53.087Z,52.03
2024-01-06T06:14:19.468Z,52.13
2024-01-06T06:16:46.059Z,49.65
2024-01-06T06:19:12.624Z,49.88
2024-01-06T06:21:39.184Z,54.10
2024-01-06T06:24:05.951Z,49.70
2024-01-06T06:26:33.675Z,54.70
2024-01-06T06:29:00.112Z,52.90
2024-01-06T06:31:26.682Z,48.80
2024-01-06T06:33:53.235Z,51.78
2024-01-06T06:36:19.704Z,59.60
2024-01-06T06:38:46.293Z,47.05
2024-01-06T06:41:12.977Z,47.47
2024-01-06T06:43:39.372Z,50.13
2024-01-06T06:46:05.874Z,49.50
2024-01-06T06:48:32.501Z,51.20
2024-01-06T06:50:58.886Z,50.85
2024-01-06T06:53:25.264Z,44.83
2024-01-06T06:55:51.713Z,48.03
2024-01-06T06:58:18.450Z,49.00
2024-01-06T07:00:45.160Z,49.70
2024-01-06T07:03:11.724Z,49.75
2024-01-06T07:05:38.291Z,47.80
2024-01-06T07:08:05.142Z,43.08
2024-01-06T07:10:31.608Z,47.20
2024-01-06T07:12:58.040Z,49.38
2024-01-06T07:15:24.543Z,51.20
2024-01-06T07:17:51.147Z,44.83
2024-01-06T07:20:17.627Z,46.85
2024-01-06T07:22:44.893Z,49.78
2024-01-06T07:25:11.447Z,43.75
2024-01-06T07:27:37.941Z,44.03
2024-01-06T07:30:04.861Z,41.47
2024-01-06T07:32:31.991Z,38.05
2024-01-06T07:34:58.607Z,43.05
2024-01-06T07:37:25.155Z,44.47
2024-01-06T07:39:51.805Z,42.55
2024-01-06T07:42:19.183Z,42.70
2024-01-06T07:44:45.634Z,42.17
2024-01-06T07:47:12.181Z,44.88
2024-01-06T07:49:38.678Z,40.60
2024-01-06T07:52:05.234Z,40.88
2024-01-06T07:54:31.742Z,34.45
2024-01-06T07:56:58.292Z,37.85
2024-01-06T07:59:24.900Z,37.78
2024-01-06T08:01:51.459Z,38.47
2024-01-06T08:04:17.964Z,38.83
2024-01-06T08:06:44.991Z,39.53
2024-01-06T08:09:11.583Z,34.85
2024-01-06T08:11:38.022Z,38.55
2024-01-06T08:14:04.428Z,42.10
2024-01-06T08:16:30.898Z,34.47
2024-01-06T08:18:57.497Z,35.80
2024-01-06T08:21:24.007Z,41.33
2024-01-06T08:23:50.485Z,33.28
2024-01-06T08:26:16.994Z,42.33
2024-01-06T08:28:43.490Z,36.60
2024-01-06T08:31:10.130Z,34.92
2024-01-06T08:33:36.803Z,37.63
2024-01-06T08:36:03.674Z,34.88
2024-01-06T08:38:30.096Z,32.40
2024-01-06T08:40:56.641Z,40.00
2024-01-06T08:43:23.097Z,34.63
2024-01-06T08:45:49.693Z,44.10
2024-01-06T08:48:16.654Z,37.97
2024-01-06T08:50:43.535Z,33.75
2024-01-06T08:53:10.104Z,34.15
2024-01-06T08:55:36.576Z,32.80
2024-01-06T08:58:03.138Z,37.08
2024-01-06T09:00:29.787Z,26.80
2024-01-06T09:02:56.352Z,37.42
2024-01-06T09:05:22.841Z,31.33
2024-01-06T09:07:54.677Z,26.75
2024-01-06T09:10:21.847Z,31.83
2024-01-06T09:12:48.969Z,28.90
2024-01-06T09:15:15.633Z,28.13
2024-01-06T09:17:42.146Z,31.05
2024-01-06T09:20:09.085Z,32.50
2024-01-06T09:22:36.119Z,27.50
2024-01-06T09:25:02.688Z,31.95
2024-01-06T09:27:29.180Z,31.65
2024-01-06T09:29:55.700Z,32.17
2024-01-06T09:32:24.000Z,28.23
2024-01-06T09:34:50.621Z,29.83
2024-01-06T09:37:17.207Z,29.38
2024-01-06T09:39:44.049Z,31.48
2024-01-06T09:42:12.580Z,27.00
2024-01-06T09:44:39.256Z,33.47
2024-01-06T09:47:07.144Z,28.70
2024-01-06T09:49:35.939Z,34.33
2024-01-06T09:52:05.883Z,27.58
2024-01-06T09:54:37.063Z,38.65
2024-01-06T09:57:07.153Z,34.63
2024-01-06T09:59:36.056Z,31.38
2024-01-06T10:02:04.841Z,32.45
2024-01-06T10:04:31.534Z,32.92
2024-01-06T10:06:58.045Z,30.67
2024-01-06T10:09:29.259Z,32.85
2024-01-06T10:11:58.011Z,33.30
2024-01-06T10:14:25.324Z,32.28
2024-01-06T10:16:53.730Z,35.17
2024-01-06T10:19:20.747Z,30.25
2024-01-06T10:21:47.350Z,33.20
2024-01-06T10:24:14.896Z,32.05
2024-01-06T10:26:41.550Z,35.90
2024-01-06T10:29:07.995Z,32.50
2024-01-06T10:31:34.833Z,40.45
2024-01-06T10:34:01.605Z,30.10
2024-01-06T10:36:29.763Z,33.85
2024-01-06T10:38:56.828Z,23.25
2024-01-06T10:41:25.043Z,27.88
2024-01-06T10:43:52.461Z,30.08
2024-01-06T10:46:23.932Z,35.17
2024-01-06T10:51:20.237Z,24.38
2024-01-06T10:53:48.966Z,31.08
2024-01-06T10:56:16.808Z,30.48
2024-01-06T10:58:48.936Z,33.35
2024-01-06T11:01:19.577Z,27.13
2024-01-06T11:03:50.128Z,31.75
2024-01-06T11:06:18.582Z,31.55
2024-01-06T11:08:58.423Z,30.48
2024-01-06T11:11:25.599Z,29.20
2024-01-06T11:13:52.067Z,31.80
2024-01-06T11:16:38.513Z,29.08
2024-01-06T11:19:41.236Z,30.30
2024-01-06T11:22:25.993Z,26.42
2024-01-06T11:24:54.855Z,23.23
2024-01-06T11:27:24.805Z,26.10
2024-01-06T11:29:57.510Z,24.70
2024-01-06T11:32:28.749Z,24.58
2024-01-06T11:34:58.571Z,24.98
2024-01-06T11:37:49.078Z,25.88
2024-01-06T11:40:21.569Z,23.90
2024-01-06T11:42:58.429Z,25.92
2024-01-06T11:45:28.689Z,22.25
2024-01-06T11:48:00.462Z,24.55
2024-01-06T11:50:28.056Z,23.90
2024-01-06T11:52:55.819Z,24.58
2024-01-06T11:55:22.877Z,24.73
2024-01-06T11:57:50.924Z,21.00
2024-01-06T12:00:18.536Z,19.35
2024-01-06T12:02:45.330Z,27.38
2024-01-06T12:05:16.702Z,22.25
2024-01-06T12:10:12.982Z,16.52
2024-01-06T12:12:40.020Z,22.05
2024-01-06T12:15:06.995Z,22.05
2024-01-06T12:17:33.526Z,20.27
2024-01-06T12:20:00.471Z,20.33
2024-01-06T12:22:27.686Z,19.83
2024-01-06T12:24:54.524Z,21.83
2024-01-06T12:27:22.676Z,18.35
2024-01-06T12:29:49.351Z,18.33
2024-01-06T12:32:15.827Z,19.45
2024-01-06T12:34:42.527Z,25.10
2024-01-06T12:37:09.324Z,19.63
2024-01-06T12:39:35.854Z,19.27
2024-01-06T12:42:02.718Z,19.38
2024-01-06T12:44:29.408Z,19.45
2024-01-06T12:46:56.045Z,17.08
2024-01-06T12:49:22.923Z,16.63
2024-01-06T12:51:49.591Z,18.15
2024-01-06T12:54:16.110Z,18.90
2024-01-06T12:56:42.754Z,19.98
2024-01-06T12:59:09.613Z,17.65
2024-01-06T13:01:36.289Z,15.65
2024-01-06T13:04:03.089Z,16.38
2024-01-06T13:06:29.908Z,17.17
2024-01-06T13:08:56.677Z,14.20
2024-01-06T13:11:23.762Z,11.88
2024-01-06T13:13:50.226Z,14.23
2024-01-06T13:16:16.775Z,14.38
2024-01-06T13:18:43.487Z,14.20
2024-01-06T13:21:10.102Z,12.73
2024-01-06T13:23:36.635Z,12.23
2024-01-06T13:26:03.174Z,17.90
2024-01-06T13:28:29.731Z,15.25
2024-01-06T13:30:56.316Z,14.82
2024-01-06T13:33:24.042Z,14.30
2024-01-06T13:35:51.696Z,13.10
2024-01-06T13:38:18.199Z,14.85
2024-01-06T13:40:44.713Z,17.25
2024-01-06T13:43:16.258Z,13.45
2024-01-06T13:45:44.592Z,12.05
2024-01-06T13:48:11.397Z,14.38
2024-01-06T13:50:37.922Z,16.67
2024-01-06T13:53:04.744Z,14.02
2024-01-06T13:55:31.304Z,11.10
2024-01-06T13:57:57.937Z,10.90
2024-01-06T14:00:25.601Z,11.70
2024-01-06T14:02:52.174Z,14.13
2024-01-06T14:05:20.536Z,11.65
2024-01-06T14:07:49.713Z,15.50
2024-01-06T14:10:16.733Z,13.57
2024-01-06T14:12:43.434Z,13.23
2024-01-06T14:15:10.598Z,10.13
2024-01-06T14:17:37.206Z,11.73
2024-01-06T14:20:04.291Z,11.55
2024-01-06T14:22:30.880Z,11.50
2024-01-06T14:24:57.405Z,11.18
2024-01-06T14:27:24.121Z,9.55
2024-01-06T14:29:50.632Z,9.27
2024-01-06T14:32:17.110Z,12.50
2024-01-06T14:34:43.566Z,7.93
2024-01-06T14:37:10.086Z,11.45
2024-01-06T14:39:37.932Z,11.20
2024-01-06T14:42:04.735Z,9.60
2024-01-06T14:44:31.153Z,11.02
2024-01-06T14:46:57.623Z,11.40
2024-01-06T14:49:25.034Z,11.50
2024-01-06T14:51:51.677Z,13.38
2024-01-06T14:54:18.260Z,14.40
2024-01-06T14:56:44.878Z,8.70
2024-01-06T14:59:11.817Z,10.52
2024-01-06T15:01:38.663Z,14.63
2024-01-06T15:04:05.380Z,9.82
2024-01-06T15:06:31.971Z,12.70
2024-01-06T15:08:58.441Z,12.93
2024-01-06T15:11:24.906Z,11.05
2024-01-06T15:13:51.317Z,12.90
2024-01-06T15:16:17.946Z,13.80
2024-01-06T15:18:44.620Z,12.13
2024-01-06T15:21:11.066Z,12.20
2024-01-06T15:23:37.613Z,13.63
2024-01-06T15:26:04.931Z,12.55
2024-01-06T15:28:33.497Z,14.93
2024-01-06T15:31:01.311Z,12.32
2024-01-06T15:33:28.179Z,10.27
2024-01-06T15:35:54.728Z,12.02
2024-01-06T15:38:21.264Z,12.35
2024-01-06T15:40:47.943Z,12.13
2024-01-06T15:43:14.758Z,12.43
2024-01-06T15:45:41.798Z,12.43
2024-01-06T15:48:09.419Z,12.43
2024-01-06T15:50:36.242Z,17.35
2024-01-06T15:53:02.830Z,11.25
2024-01-06T15:55:29.237Z,9.85
2024-01-06T15:57:55.896Z,11.75
2024-01-06T16:00:22.560Z,11.60
2024-01-06T16:02:49.133Z,14.93
2024-01-06T16:05:16.166Z,11.32
2024-01-06T16:07:42.742Z,13.82
2024-01-06T16:10:09.443Z,11.82
2024-01-06T16:12:39.613Z,9.25
2024-01-06T16:15:06.872Z,10.80
2024-01-06T16:17:35.005Z,8.88
2024-01-06T16:20:05.608Z,12.85
2024-01-06T16:22:33.601Z,11.82
2024-01-06T16:25:00.177Z,13.38
2024-01-06T16:27:26.633Z,14.32
2024-01-06T16:29:53.351Z,9.45
2024-01-06T16:32:19.844Z,16.30
2024-01-06T16:34:48.232Z,13.45
2024-01-06T16:37:15.295Z,11.70
2024-01-06T16:39:41.762Z,11.30
2024-01-06T16:42:08.182Z,12.45
2024-01-06T16:44:35.363Z,9.40
2024-01-06T16:47:01.951Z,14.50
2024-01-06T16:49:28.866Z,12.30
2024-01-06T16:51:55.697Z,11.68
2024-01-06T16:54:22.404Z,14.32
2024-01-06T16:56:48.849Z,12.05
2024-01-06T16:59:15.416Z,13.90
2024-01-06T17:01:41.934Z,20.27
2024-01-06T17:04:08.989Z,11.88
2024-01-06T17:06:35.569Z,11.93
2024-01-06T17:09:02.007Z,10.23
2024-01-06T17:11:28.461Z,11.77
2024-01-06T17:13:54.955Z,11.05
2024-01-06T17:16:21.369Z,14.25
2024-01-06T17:18:47.922Z,9.85
2024-01-06T17:21:16.988Z,9.35
2024-01-06T17:23:44.888Z,11.13
2024-01-06T17:26:12.125Z,10.88
2024-01-06T17:28:38.634Z,10.80
2024-01-06T17:31:05.253Z,11.48
2024-01-06T17:33:32.020Z,9.60
2024-01-06T17:35:58.554Z,10.73
2024-01-06T17:38:24.974Z,12.88
2024-01-06T17:40:51.473Z,12.38
2024-01-06T17:43:18.184Z,10.85
2024-01-06T17:45:44.687Z,10.70
2024-01-06T17:48:13.937Z,13.75
2024-01-06T17:50:40.430Z,11.68
2024-01-06T17:53:07.040Z,10.10
2024-01-06T17:55:33.489Z,10.25
2024-01-06T17:57:59.977Z,11.98
2024-01-06T18:00:26.586Z,9.80
2024-01-06T18:02:53.064Z,9.90
2024-01-06T18:05:20.309Z,10.65
2024-01-06T18:07:46.901Z,10.27
2024-01-06T18:10:13.486Z,10.68
2024-01-06T18:12:42.320Z,11.43
2024-01-06T18:15:08.857Z,15.40
2024-01-06T18:17:36.557Z,15.02
2024-01-06T18:20:04.819Z,11.50
2024-01-06T18:22:32.163Z,14.63
2024-01-06T18:24:58.801Z,10.05
2024-01-06T18:27:25.455Z,9.50
2024-01-06T18:29:51.909Z,11.77
2024-01-06T18:32:18.586Z,13.70
2024-01-06T18:34:47.228Z,9.32
2024-01-06T18:37:14.808Z,9.70
2024-01-06T18:39:41.809Z,10.65
2024-01-06T18:42:14.572Z,13.43
2024-01-06T18:44:41.559Z,8.50
2024-01-06T18:47:11.969Z,10.45
2024-01-06T18:49:38.477Z,10.85
2024-01-06T18:52:04.978Z,8.82
2024-01-06T18:54:35.144Z,9.55
2024-01-06T18:57:05.407Z,8.23
2024-01-06T18:59:31.827Z,7.43
2024-01-06T19:01:58.319Z,11.40
2024-01-06T19:04:24.768Z,10.35
2024-01-06T19:06:51.252Z,10.55
2024-01-06T19:09:17.781Z,7.85
2024-01-06T19:11:44.325Z,10.63
2024-01-06T19:14:10.806Z,7.03
2024-01-06T19:16:38.000Z,8.85
2024-01-06T19:19:04.978Z,8.38
2024-01-06T19:21:31.687Z,10.93
2024-01-06T19:23:58.094Z,9.02
2024-01-06T19:26:24.611Z,8.65
2024-01-06T19:28:51.002Z,8.65
2024-01-06T19:31:17.510Z,7.47
2024-01-06T19:33:44.077Z,13.18
2024-01-06T19:36:10.912Z,9.32
2024-01-06T19:38:37.994Z,9.43
2024-01-06T19:41:04.584Z,9.07
2024-01-06T19:43:32.978Z,7.65
2024-01-06T19:46:02.439Z,10.38
2024-01-06T19:48:29.189Z,9.73
2024-01-06T19:50:55.752Z,7.22
2024-01-06T19:53:22.194Z,11.05
2024-01-06T19:55:48.593Z,8.55
2024-01-06T19:58:14.982Z,11.07
2024-01-06T20:00:41.948Z,11.23
2024-01-06T20:03:10.112Z,9.43
2024-01-06T20:05:38.152Z,14.25
2024-01-06T20:08:05.081Z,8.95
2024-01-06T20:10:31.479Z,10.75
2024-01-06T20:12:58.128Z,9.88
2024-01-06T20:15:24.738Z,10.85
2024-01-06T20:17:51.867Z,13.20
2024-01-06T20:20:19.391Z,10.25
2024-01-06T20:22:47.713Z,9.68
2024-01-06T20:25:14.291Z,9.75
2024-01-06T20:27:41.032Z,7.47
2024-01-06T20:30:08.178Z,6.75
2024-01-06T20:32:38.092Z,8.50
2024-01-06T20:35:08.775Z,9.75
2024-01-06T20:37:35.422Z,6.82
2024-01-06T20:40:02.022Z,12.30
2024-01-06T20:42:31.091Z,10.27
2024-01-06T20:44:57.609Z,8.13
2024-01-06T20:47:24.092Z,8.50
2024-01-06T20:49:50.585Z,10.05
2024-01-06T20:52:17.053Z,9.98
2024-01-06T20:54:43.544Z,7.25
2024-01-06T20:57:10.918Z,8.13
2024-01-06T20:59:37.460Z,8.65
2024-01-06T21:02:04.665Z,8.57
2024-01-06T21:04:31.118Z,6.68
2024-01-06T21:06:57.668Z,9.15
2024-01-06T21:09:27.101Z,11.18
2024-01-06T21:11:55.338Z,8.02
2024-01-06T21:14:22.547Z,9.05
2024-01-06T21:16:51.495Z,8.63
2024-01-06T21:19:19.568Z,7.78
2024-01-06T21:21:46.197Z,7.97
2024-01-06T21:24:12.730Z,6.63
2024-01-06T21:26:39.330Z,8.15
2024-01-06T21:29:06.252Z,10.07
2024-01-06T21:31:33.038Z,12.45
2024-01-06T21:33:59.674Z,8.55
2024-01-06T21:36:26.760Z,10.60
2024-01-06T21:38:53.403Z,7.22
2024-01-06T21:41:21.143Z,9.35
2024-01-06T21:43:47.612Z,7.22
2024-01-06T21:46:14.100Z,7.88
2024-01-06T21:48:40.806Z,7.35
2024-01-06T21:51:07.756Z,6.15
2024-01-06T21:53:34.209Z,9.88
2024-01-06T21:56:00.763Z,6.55
2024-01-06T21:58:27.143Z,14.05
2024-01-06T22:00:55.741Z,7.45
2024-01-06T22:03:22.422Z,5.78
2024-01-06T22:05:49.163Z,6.53
2024-01-06T22:08:15.653Z,6.68
2024-01-06T22:10:42.152Z,6.60
2024-01-06T22:13:08.680Z,7.93
2024-01-06T22:15:36.547Z,7.00
2024-01-06T22:18:03.506Z,5.88
2024-01-06T22:20:30.044Z,7.22
2024-01-06T22:22:57.709Z,5.32
2024-01-06T22:25:24.198Z,7.50
2024-01-06T22:27:50.925Z,4.90
2024-01-06T22:30:18.200Z,7.05
2024-01-06T22:32:48.143Z,5.53
2024-01-06T22:35:15.417Z,4.15
2024-01-06T22:37:42.658Z,4.40
2024-01-06T22:40:09.713Z,3.65
2024-01-06T22:42:36.258Z,5.45
2024-01-06T22:45:02.814Z,5.07
2024-01-06T22:47:29.392Z,5.38
2024-01-06T22:49:55.869Z,4.15
2024-01-06T22:52:22.439Z,6.57
2024-01-06T22:54:49.134Z,5.35
2024-01-06T22:57:15.689Z,4.35
2024-01-06T22:59:42.176Z,4.55
2024-01-06T23:02:08.786Z,3.88
2024-01-06T23:04:35.387Z,5.07
2024-01-06T23:07:02.036Z,3.70
2024-01-06T23:09:28.610Z,3.78
2024-01-06T23:11:55.693Z,8.30
2024-01-06T23:14:22.443Z,4.60
2024-01-06T23:16:49.013Z,6.78
2024-01-06T23:19:15.711Z,4.65
2024-01-06T23:21:43.908Z,5.30
2024-01-06T23:24:10.575Z,4.10
2024-01-06T23:26:37.097Z,4.03
2024-01-06T23:29:03.576Z,8.65
2024-01-06T23:31:30.133Z,4.88
2024-01-06T23:33:56.758Z,6.93
2024-01-06T23:36:23.247Z,5.57
2024-01-06T23:38:49.705Z,5.43
2024-01-06T23:41:16.228Z,8.02
2024-01-06T23:43:42.650Z,7.07
2024-01-06T23:46:09.045Z,6.10
2024-01-06T23:48:35.982Z,5.63
2024-01-06T23:51:02.513Z,4.97
2024-01-06T23:53:28.939Z,7.68
2024-01-06T23:55:55.971Z,8.13
2024-01-06T23:58:22.366Z,6.07
